Summit Lake, Canada
Current Conditions -  °F | °C
As of 1:45 AM on Friday 31 Oct 2014 (Local Time) from CYXS Reporting Station
Light Rain Light Rain  
Wind Chill: 41°   Ceiling: 4200
Heat Index: 45°   Visibility: 5mi
Dew Point: 43°   Wind: 6mph
Humidity: 93%   Direction: 130°SE
Pressure: 29.62"   Gusts: NA
Location:  54.28°N, 122.63°W
Report Text: CYXS 310845Z AUTO 13005KT 5SM -RA BR FEW006 BKN042 OVC050 07/06 A2962 RMK PCPN 0.8MM PAST HR SLP043
Loading
Personal Weather Stations






























Interactive Weather Map
Tropical Storm Tracking
New forecast layout! Learn more

10-Day Weather Forecast

Advertisements
Track Severe Weather on mobile